»·PEaware :: N5954W KMRY-KOAK

N5954W :: KMRY-KOAK

FLIGHT INFORMATION

Flight Status: Arrived
Operator: Privately registered:
United States
More flights under this callsign
Pilot: Joshua M. (19482)
Aircraft: BEECH AIRCRAFT A90-E90 KING AIR
(BE9L)
More flights by this aircraft type
Origin: KMRY Monterey Peninsula
United States
Destination: KOAK Metro Oakland Intl
United States
More flights between these airports :: More routes between these airports
Route: +SNS V111 KARNN V301 SUNOL
File this flight plan on PilotEdge
Remarks: Outdated NAV Default XPlane
Altitude:
(Current/Filed)
8,000ft
Speed:
(Current/Filed)
240kts
Departed: 25-Jul-18 06:55 PM
Arrived: 25-Jul-18 07:34 PM
Distance/Time
Traveled:
71nm/0:39
Distance/Time
To Go:
Arrived

Flight Plot

Page will automatically refresh every two minutes.

Flight plan parsing failed; only flown route is shown


Map Options




Map Legend


Flown Route
Filed Route
Departure Airport
Arrival Airport
Navaid (VOR, NDB)
Fix

Horizontal Profiles

Position Reports

Time Latitude Longitude Heading Altitude Ground
Speed
25-Jul-18 18:30 36.587907 -121.839398 291 258ft 0kts
25-Jul-18 18:31 36.587907 -121.839398 291 258ft 0kts
25-Jul-18 18:32 36.587907 -121.839398 291 258ft 0kts
25-Jul-18 18:33 36.587907 -121.839398 291 258ft 0kts
25-Jul-18 18:34 36.587907 -121.839398 291 258ft 0kts
25-Jul-18 18:35 36.587907 -121.839398 291 258ft 0kts
25-Jul-18 18:36 36.587907 -121.839398 291 258ft 0kts
25-Jul-18 18:37 36.587907 -121.839398 291 258ft 0kts
25-Jul-18 18:38 36.587907 -121.839398 291 258ft 0kts
25-Jul-18 18:39 36.587907 -121.839398 291 258ft 0kts
25-Jul-18 18:40 36.587907 -121.839398 291 258ft 0kts
25-Jul-18 18:41 36.587907 -121.839398 291 258ft 0kts
25-Jul-18 18:42 36.587907 -121.839398 291 258ft 0kts
25-Jul-18 18:43 36.587907 -121.839398 291 258ft 0kts
25-Jul-18 18:44 36.587907 -121.839398 291 258ft 0kts
25-Jul-18 18:45 36.587907 -121.839398 291 258ft 0kts
25-Jul-18 18:46 36.587907 -121.839398 291 258ft 0kts
25-Jul-18 18:47 36.587907 -121.839398 291 258ft 0kts
25-Jul-18 18:48 36.587928 -121.839557 245 258ft 2kts
25-Jul-18 18:49 36.587706 -121.840057 263 258ft 2kts
25-Jul-18 18:50 36.587702 -121.840072 255 258ft 0kts
25-Jul-18 18:51 36.587341 -121.839688 113 258ft 7kts
25-Jul-18 18:52 36.586051 -121.835918 111 258ft 13kts
25-Jul-18 18:53 36.584884 -121.835555 203 258ft 0kts
25-Jul-18 18:54 36.584875 -121.835559 203 258ft 1kts
25-Jul-18 18:55 36.584228 -121.836198 293 258ft 0kts
25-Jul-18 18:56 36.588305 -121.848304 293 430ft 113kts
25-Jul-18 18:57 36.604574 -121.884565 339 1944ft 150kts
25-Jul-18 18:58 36.646238 -121.901198 340 3558ft 162kts
25-Jul-18 18:59 36.679159 -121.882514 77 5145ft 173kts
25-Jul-18 19:00 36.688088 -121.824831 75 6732ft 168kts
25-Jul-18 19:01 36.698801 -121.760484 75 6989ft 210kts
25-Jul-18 19:02 36.710925 -121.687988 75 6982ft 219kts
25-Jul-18 19:03 36.723379 -121.613485 75 6975ft 219kts
25-Jul-18 19:04 36.735795 -121.538946 75 6966ft 221kts
25-Jul-18 19:05 36.748299 -121.463570 75 6955ft 223kts
25-Jul-18 19:06 36.776724 -121.407569 11 6944ft 216kts
25-Jul-18 19:07 36.834750 -121.389017 13 6936ft 219kts
25-Jul-18 19:08 36.893269 -121.368892 13 6936ft 219kts
25-Jul-18 19:09 36.951083 -121.348845 14 6935ft 219kts
25-Jul-18 19:10 37.009036 -121.328710 14 7036ft 216kts
25-Jul-18 19:11 37.066792 -121.308613 14 7072ft 220kts
25-Jul-18 19:12 37.115497 -121.291634 14 7073ft 222kts
25-Jul-18 19:13 37.174197 -121.307573 318 7059ft 218kts
25-Jul-18 19:14 37.214788 -121.353325 317 7055ft 218kts
25-Jul-18 19:15 37.257815 -121.403160 316 7060ft 218kts
25-Jul-18 19:16 37.301556 -121.454062 316 7073ft 218kts
25-Jul-18 19:17 37.340990 -121.500035 316 7080ft 217kts
25-Jul-18 19:18 37.363817 -121.526681 316 7084ft 217kts
25-Jul-18 19:19 37.405111 -121.574943 316 7091ft 215kts
25-Jul-18 19:20 37.447425 -121.624475 316 7098ft 214kts
25-Jul-18 19:21 37.489873 -121.674248 316 7097ft 214kts
25-Jul-18 19:22 37.527093 -121.717960 316 7091ft 215kts
25-Jul-18 19:23 37.562882 -121.761144 303 7068ft 216kts
25-Jul-18 19:24 37.588380 -121.811505 302 7077ft 215kts
25-Jul-18 19:25 37.613515 -121.861640 293 6198ft 213kts
25-Jul-18 19:26 37.634352 -121.926036 292 4529ft 186kts
25-Jul-18 19:27 37.650875 -121.976705 292 3721ft 142kts
25-Jul-18 19:28 37.665323 -122.021180 292 3009ft 145kts
25-Jul-18 19:29 37.679188 -122.063755 291 2297ft 101kts
25-Jul-18 19:30 37.688139 -122.091487 291 1858ft 86kts
25-Jul-18 19:31 37.697347 -122.119769 291 1399ft 89kts
25-Jul-18 19:32 37.706831 -122.148393 292 940ft 88kts
25-Jul-18 19:33 37.716004 -122.177030 292 487ft 89kts
25-Jul-18 19:34 37.724246 -122.202977 290 54ft 72kts
25-Jul-18 19:35 37.727808 -122.209545 32 11ft 8kts
25-Jul-18 19:36 37.728942 -122.210291 307 11ft 0kts

Navigation Log

Ident Type
Flight plan parsing failed, navigation log unavailable